Terminal Aerodrome Forecast
Issued by NWS Wilmington, NC

Home | Current Version | Previous Version | Text Only | Print | Product List | Glossary On
Versions: 1 2 3 4 5 6 7 8 9 10 11 12 13
000
FTUS42 KILM 291100
TAFFLO
TAF
KFLO 291120Z 2912/3012 VRB03KT P6SM SCT250
     FM291400 17006KT P6SM SCT250
     FM291900 20012G18KT P6SM SCT250
     FM300000 21006KT P6SM OVC100
     FM300700 26006KT P6SM SCT100=

USA.gov is the U.S. government's official web portal to all federal, state and local government web resources and services.